Time,TemperatureF,DewpointF,PressureIn,WindDirection,WindDirectionDegrees,WindSpeedMPH,WindSpeedGustMPH,Humidity,HourlyPrecipIn,Conditions,Clouds,dailyrainin,SoftwareType,DateUTC
2013-04-24 00:10:00,46.2,36.0,30.26,North,356,4.0,8.0,67,0.00,,,0.00,weatherlink.com 1.10,2013-04-24 07:10:00,
2013-04-24 00:25:00,45.3,35.0,30.27,North,358,5.0,8.0,68,0.00,,,0.00,weatherlink.com 1.10,2013-04-24 07:25:00,
2013-04-24 00:40:00,45.2,35.0,30.28,North,358,4.0,7.0,67,0.00,,,0.00,weatherlink.com 1.10,2013-04-24 07:40:00,
2013-04-24 00:55:00,45.2,35.0,30.28,NNW,336,5.0,7.0,67,0.00,,,0.00,weatherlink.com 1.10,2013-04-24 07:55:00,
2013-04-24 01:10:00,44.8,34.0,30.29,North,356,2.0,7.0,67,0.00,,,0.00,weatherlink.com 1.10,2013-04-24 08:10:00,
2013-04-24 01:40:00,42.8,34.0,30.29,NNW,338,3.0,7.0,71,0.00,,,0.00,weatherlink.com 1.10,2013-04-24 08:40:00,
2013-04-24 01:55:00,42.4,34.0,30.29,North,4,4.0,7.0,72,0.00,,,0.00,weatherlink.com 1.10,2013-04-24 08:55:00,
2013-04-24 02:10:00,41.4,34.0,30.29,NNW,340,6.0,7.0,75,0.00,,,0.00,weatherlink.com 1.10,2013-04-24 09:10:00,
2013-04-24 02:25:00,41.1,34.0,30.29,NNW,343,5.0,9.0,75,0.00,,,0.00,weatherlink.com 1.10,2013-04-24 09:25:00,
2013-04-24 02:40:00,40.8,33.0,30.29,North,7,5.0,7.0,75,0.00,,,0.00,weatherlink.com 1.10,2013-04-24 09:40:00,
2013-04-24 02:55:00,40.4,33.0,30.29,North,354,3.0,6.0,76,0.00,,,0.00,weatherlink.com 1.10,2013-04-24 09:55:00,
2013-04-24 03:11:00,41.2,33.0,30.30,North,360,5.0,10.0,73,0.00,,,0.00,weatherlink.com 1.10,2013-04-24 10:11:00,
2013-04-24 03:26:00,39.6,33.0,30.30,NW,326,6.0,7.0,77,0.00,,,0.00,weatherlink.com 1.10,2013-04-24 10:26:00,
2013-04-24 03:41:00,38.9,33.0,30.30,NNW,348,5.0,7.0,79,0.00,,,0.00,weatherlink.com 1.10,2013-04-24 10:41:00,
2013-04-24 03:56:00,39.1,33.0,30.30,NNW,344,4.0,11.0,78,0.00,,,0.00,weatherlink.com 1.10,2013-04-24 10:56:00,
2013-04-24 04:11:00,39.0,32.0,30.31,NNW,348,4.0,7.0,77,0.00,,,0.00,weatherlink.com 1.10,2013-04-24 11:11:00,
2013-04-24 04:26:00,38.7,32.0,30.31,North,352,2.0,6.0,78,0.00,,,0.00,weatherlink.com 1.10,2013-04-24 11:26:00,
2013-04-24 04:41:00,38.5,32.0,30.31,NNW,341,5.0,9.0,78,0.00,,,0.00,weatherlink.com 1.10,2013-04-24 11:41:00,
2013-04-24 04:56:00,38.1,32.0,30.32,North,356,4.0,7.0,78,0.00,,,0.00,weatherlink.com 1.10,2013-04-24 11:56:00,
2013-04-24 05:11:00,38.1,32.0,30.32,North,3,3.0,6.0,78,0.00,,,0.00,weatherlink.com 1.10,2013-04-24 12:11:00,
2013-04-24 05:26:00,37.1,31.0,30.32,NNW,347,3.0,5.0,80,0.00,,,0.00,weatherlink.com 1.10,2013-04-24 12:26:00,
2013-04-24 05:41:00,36.8,31.0,30.32,NNW,343,7.0,7.0,80,0.00,,,0.00,weatherlink.com 1.10,2013-04-24 12:41:00,
2013-04-24 05:56:00,36.8,31.0,30.32,NNW,334,5.0,7.0,80,0.00,,,0.00,weatherlink.com 1.10,2013-04-24 12:56:00,
2013-04-24 06:11:00,36.2,31.0,30.32,NNW,346,5.0,6.0,81,0.00,,,0.00,weatherlink.com 1.10,2013-04-24 13:11:00,
2013-04-24 06:26:00,36.1,31.0,30.32,NNW,341,4.0,7.0,82,0.00,,,0.00,weatherlink.com 1.10,2013-04-24 13:26:00,
2013-04-24 06:41:00,36.6,31.0,30.33,North,7,3.0,6.0,80,0.00,,,0.00,weatherlink.com 1.10,2013-04-24 13:41:00,
2013-04-24 06:56:00,37.4,31.0,30.33,NNE,27,2.0,7.0,79,0.00,,,0.00,weatherlink.com 1.10,2013-04-24 13:56:00,
2013-04-24 07:11:00,37.8,32.0,30.33,NE,49,2.0,4.0,80,0.00,,,0.00,weatherlink.com 1.10,2013-04-24 14:11:00,
2013-04-24 07:26:00,38.3,32.0,30.34,East,81,1.0,5.0,78,0.00,,,0.00,weatherlink.com 1.10,2013-04-24 14:26:00,
2013-04-24 07:41:00,39.3,33.0,30.34,NNE,24,2.0,3.0,77,0.00,,,0.00,weatherlink.com 1.10,2013-04-24 14:41:00,
2013-04-24 07:56:00,41.1,33.0,30.34,NNE,25,2.0,4.0,73,0.00,,,0.00,weatherlink.com 1.10,2013-04-24 14:56:00,
2013-04-24 08:11:00,42.8,36.0,30.33,East,85,1.0,3.0,78,0.00,,,0.00,weatherlink.com 1.10,2013-04-24 15:11:00,
2013-04-24 08:26:00,44.7,37.0,30.33,ESE,115,2.0,3.0,74,0.00,,,0.00,weatherlink.com 1.10,2013-04-24 15:26:00,
2013-04-24 08:41:00,45.9,37.0,30.33,SE,133,3.0,4.0,72,0.00,,,0.00,weatherlink.com 1.10,2013-04-24 15:41:00,
2013-04-24 08:56:00,46.3,37.0,30.32,ESE,121,2.0,5.0,69,0.00,,,0.00,weatherlink.com 1.10,2013-04-24 15:56:00,
2013-04-24 09:11:00,47.2,37.0,30.31,SE,132,4.0,5.0,67,0.00,,,0.00,weatherlink.com 1.10,2013-04-24 16:11:00,
2013-04-24 09:26:00,48.7,36.0,30.31,SE,133,4.0,5.0,63,0.00,,,0.00,weatherlink.com 1.10,2013-04-24 16:26:00,
2013-04-24 09:41:00,49.8,37.0,30.30,SE,135,5.0,7.0,61,0.00,,,0.00,weatherlink.com 1.10,2013-04-24 16:41:00,
2013-04-24 09:56:00,51.5,39.0,30.30,SE,139,4.0,6.0,62,0.00,,,0.00,weatherlink.com 1.10,2013-04-24 16:56:00,
2013-04-24 10:11:00,52.7,39.0,30.29,SE,135,2.0,6.0,60,0.00,,,0.00,weatherlink.com 1.10,2013-04-24 17:11:00,
2013-04-24 10:26:00,53.8,35.0,30.28,SW,216,1.0,4.0,49,0.00,,,0.00,weatherlink.com 1.10,2013-04-24 17:26:00,
2013-04-24 10:41:00,55.3,40.0,30.27,SE,139,2.0,5.0,57,0.00,,,0.00,weatherlink.com 1.10,2013-04-24 17:41:00,
2013-04-24 10:57:00,58.1,40.0,30.27,SE,133,4.0,6.0,51,0.00,,,0.00,weatherlink.com 1.10,2013-04-24 17:57:00,
2013-04-24 11:12:00,61.4,40.0,30.27,SSE,154,5.0,7.0,46,0.00,,,0.00,weatherlink.com 1.10,2013-04-24 18:12:00,
2013-04-24 11:27:00,63.1,38.0,30.25,SE,131,3.0,7.0,40,0.00,,,0.00,weatherlink.com 1.10,2013-04-24 18:27:00,
2013-04-24 11:42:00,64.5,37.0,30.24,SE,138,4.0,8.0,37,0.00,,,0.00,weatherlink.com 1.10,2013-04-24 18:42:00,
2013-04-24 11:57:00,64.1,35.0,30.23,SE,134,2.0,9.0,34,0.00,,,0.00,weatherlink.com 1.10,2013-04-24 18:57:00,
2013-04-24 12:12:00,66.4,33.0,30.22,SE,135,4.0,9.0,29,0.00,,,0.00,weatherlink.com 1.10,2013-04-24 19:12:00,
2013-04-24 12:27:00,68.1,35.0,30.21,SE,139,5.0,8.0,30,0.00,,,0.00,weatherlink.com 1.10,2013-04-24 19:27:00,
2013-04-24 12:42:00,68.7,31.0,30.20,SE,133,5.0,11.0,25,0.00,,,0.00,weatherlink.com 1.10,2013-04-24 19:42:00,
2013-04-24 12:57:00,69.3,38.0,30.19,SSE,151,6.0,11.0,32,0.00,,,0.00,weatherlink.com 1.10,2013-04-24 19:57:00,
2013-04-24 13:12:00,72.4,39.0,30.18,SE,136,5.0,10.0,30,0.00,,,0.00,weatherlink.com 1.10,2013-04-24 20:12:00,
2013-04-24 13:27:00,71.4,37.0,30.17,SSE,153,9.0,12.0,29,0.00,,,0.00,weatherlink.com 1.10,2013-04-24 20:27:00,
2013-04-24 13:42:00,69.9,32.0,30.16,SE,141,7.0,10.0,25,0.00,,,0.00,weatherlink.com 1.10,2013-04-24 20:42:00,
2013-04-24 13:57:00,70.2,32.0,30.15,SE,143,9.0,10.0,24,0.00,,,0.00,weatherlink.com 1.10,2013-04-24 20:57:00,
2013-04-24 14:12:00,75.0,36.0,30.14,SSE,152,5.0,10.0,24,0.00,,,0.00,weatherlink.com 1.10,2013-04-24 21:12:00,
2013-04-24 14:27:00,73.9,34.0,30.14,SE,136,5.0,9.0,23,0.00,,,0.00,weatherlink.com 1.10,2013-04-24 21:27:00,
2013-04-24 14:42:00,76.2,38.0,30.13,SSE,165,4.0,10.0,25,0.00,,,0.00,weatherlink.com 1.10,2013-04-24 21:42:00,
2013-04-24 14:57:00,76.3,36.0,30.12,SE,141,6.0,11.0,23,0.00,,,0.00,weatherlink.com 1.10,2013-04-24 21:57:00,
2013-04-24 15:12:00,72.6,33.0,30.12,SE,143,4.0,10.0,23,0.00,,,0.00,weatherlink.com 1.10,2013-04-24 22:12:00,
2013-04-24 15:27:00,73.3,32.0,30.11,SE,135,8.0,9.0,22,0.00,,,0.00,weatherlink.com 1.10,2013-04-24 22:27:00,
2013-04-24 15:42:00,72.4,34.0,30.09,SE,131,5.0,8.0,24,0.00,,,0.00,weatherlink.com 1.10,2013-04-24 22:42:00,
2013-04-24 15:58:00,74.8,36.0,30.08,SSE,153,4.0,9.0,24,0.00,,,0.00,weatherlink.com 1.10,2013-04-24 22:58:00,
2013-04-24 16:13:00,73.6,34.0,30.07,SE,143,5.0,10.0,23,0.00,,,0.00,weatherlink.com 1.10,2013-04-24 23:13:00,
2013-04-24 16:28:00,75.1,39.0,30.06,SSE,152,5.0,9.0,27,0.00,,,0.00,weatherlink.com 1.10,2013-04-24 23:28:00,
2013-04-24 16:43:00,74.0,38.0,30.05,SE,139,4.0,8.0,27,0.00,,,0.00,weatherlink.com 1.10,2013-04-24 23:43:00,
2013-04-24 16:58:00,72.8,33.0,30.04,SE,139,2.0,8.0,23,0.00,,,0.00,weatherlink.com 1.10,2013-04-24 23:58:00,
2013-04-24 17:13:00,71.9,32.0,30.03,ESE,121,1.0,7.0,23,0.00,,,0.00,weatherlink.com 1.10,2013-04-25 00:13:00,
2013-04-24 17:28:00,71.2,37.0,30.03,SE,139,3.0,5.0,29,0.00,,,0.00,weatherlink.com 1.10,2013-04-25 00:28:00,
2013-04-24 17:43:00,69.9,36.0,30.02,SSE,152,1.0,4.0,29,0.00,,,0.00,weatherlink.com 1.10,2013-04-25 00:43:00,
2013-04-24 17:58:00,69.1,33.0,30.02,SE,132,4.0,5.0,26,0.00,,,0.00,weatherlink.com 1.10,2013-04-25 00:58:00,
2013-04-24 18:13:00,68.3,32.0,30.01,SE,129,1.0,6.0,26,0.00,,,0.00,weatherlink.com 1.10,2013-04-25 01:13:00,
2013-04-24 18:28:00,68.2,34.0,30.00,SE,132,1.0,4.0,28,0.00,,,0.00,weatherlink.com 1.10,2013-04-25 01:28:00,
2013-04-24 18:43:00,68.0,34.0,29.99,SE,132,0.0,2.0,29,0.00,,,0.00,weatherlink.com 1.10,2013-04-25 01:43:00,
2013-04-24 18:58:00,67.1,33.0,29.99,SE,131,0.0,1.0,28,0.00,,,0.00,weatherlink.com 1.10,2013-04-25 01:58:00,
2013-04-24 19:13:00,66.5,36.0,29.98,SE,134,1.0,1.0,32,0.00,,,0.00,weatherlink.com 1.10,2013-04-25 02:13:00,
2013-04-24 19:28:00,63.7,39.0,29.98,SSE,156,2.0,3.0,41,0.00,,,0.00,weatherlink.com 1.10,2013-04-25 02:28:00,
2013-04-24 19:43:00,61.4,40.0,29.98,SSE,156,3.0,4.0,45,0.00,,,0.00,weatherlink.com 1.10,2013-04-25 02:43:00,
2013-04-24 19:58:00,59.9,40.0,29.98,NNW,340,4.0,6.0,48,0.00,,,0.00,weatherlink.com 1.10,2013-04-25 02:58:00,
2013-04-24 20:13:00,59.2,40.0,29.98,NNW,328,2.0,4.0,49,0.00,,,0.00,weatherlink.com 1.10,2013-04-25 03:13:00,
2013-04-24 20:28:00,57.2,40.0,29.98,NNW,339,5.0,6.0,54,0.00,,,0.00,weatherlink.com 1.10,2013-04-25 03:28:00,
2013-04-24 20:43:00,55.1,40.0,29.99,NNW,331,4.0,8.0,58,0.00,,,0.00,weatherlink.com 1.10,2013-04-25 03:43:00,
2013-04-24 20:58:00,55.2,39.0,29.99,NW,306,1.0,5.0,55,0.00,,,0.00,weatherlink.com 1.10,2013-04-25 03:58:00,
2013-04-24 21:13:00,54.5,39.0,30.00,North,349,4.0,5.0,57,0.00,,,0.00,weatherlink.com 1.10,2013-04-25 04:13:00,
2013-04-24 21:28:00,53.9,39.0,29.99,North,352,6.0,7.0,58,0.00,,,0.00,weatherlink.com 1.10,2013-04-25 04:28:00,
2013-04-24 21:43:00,54.7,39.0,30.00,NW,325,2.0,6.0,55,0.00,,,0.00,weatherlink.com 1.10,2013-04-25 04:43:00,
2013-04-24 21:58:00,53.9,38.0,30.00,NNW,327,3.0,7.0,56,0.00,,,0.00,weatherlink.com 1.10,2013-04-25 04:58:00,
2013-04-24 22:13:00,53.6,39.0,30.00,NNW,342,5.0,7.0,58,0.00,,,0.00,weatherlink.com 1.10,2013-04-25 05:13:00,
2013-04-24 22:28:00,51.1,39.0,30.00,NNW,333,7.0,9.0,64,0.00,,,0.00,weatherlink.com 1.10,2013-04-25 05:28:00,
2013-04-24 22:43:00,49.7,39.0,30.00,NNW,331,6.0,8.0,66,0.00,,,0.00,weatherlink.com 1.10,2013-04-25 05:43:00,
2013-04-24 22:58:00,49.2,38.0,30.00,NNW,331,5.0,7.0,66,0.00,,,0.00,weatherlink.com 1.10,2013-04-25 05:58:00,
2013-04-24 23:13:00,48.9,38.0,30.00,NNW,348,3.0,7.0,66,0.00,,,0.00,weatherlink.com 1.10,2013-04-25 06:13:00,
2013-04-24 23:28:00,48.8,38.0,29.99,NNW,328,3.0,4.0,67,0.00,,,0.00,weatherlink.com 1.10,2013-04-25 06:28:00,
2013-04-24 23:43:00,48.0,39.0,29.99,NNW,328,2.0,4.0,70,0.00,,,0.00,weatherlink.com 1.10,2013-04-25 06:43:00,
2013-04-24 23:58:00,48.2,39.0,29.99,NW,322,4.0,4.0,70,0.00,,,0.00,weatherlink.com 1.10,2013-04-25 06:58:00,